createdAt,value
2022-11-27T00:00:45.362Z,39.50
2022-11-27T00:03:13.570Z,46.27
2022-11-27T00:06:04.457Z,25.90
2022-11-27T00:08:31.887Z,19.13
2022-11-27T00:11:20.766Z,35.20
2022-11-27T00:14:01.119Z,30.20
2022-11-27T00:16:40.849Z,23.30
2022-11-27T00:19:09.967Z,32.07
2022-11-27T00:21:42.143Z,31.30
2022-11-27T00:24:15.501Z,37.40
2022-11-27T00:26:50.013Z,24.47
2022-11-27T00:29:23.444Z,16.83
2022-11-27T00:32:33.599Z,25.90
2022-11-27T00:35:01.460Z,18.40
2022-11-27T00:37:31.688Z,36.90
2022-11-27T00:40:24.673Z,31.50
2022-11-27T00:42:59.009Z,22.33
2022-11-27T00:45:32.564Z,29.83
2022-11-27T00:48:08.543Z,17.60
2022-11-27T00:50:49.215Z,36.30
2022-11-27T00:53:17.671Z,25.53
2022-11-27T00:55:47.853Z,19.03
2022-11-27T00:58:36.462Z,16.43
2022-11-27T01:02:14.347Z,31.30
2022-11-27T01:04:03.040Z,22.20
2022-11-27T01:07:30.179Z,26.97
2022-11-27T01:10:09.390Z,26.30
2022-11-27T01:12:45.193Z,19.40
2022-11-27T01:15:13.257Z,28.30
2022-11-27T01:17:40.324Z,27.37
2022-11-27T01:20:18.675Z,31.37
2022-11-27T01:23:13.486Z,31.63
2022-11-27T01:25:53.918Z,24.97
2022-11-27T01:28:28.253Z,28.87
2022-11-27T01:30:58.947Z,19.93
2022-11-27T01:33:32.647Z,24.37
2022-11-27T01:36:02.744Z,27.80
2022-11-27T01:38:34.529Z,21.80
2022-11-27T01:41:12.357Z,24.33
2022-11-27T01:44:04.578Z,19.73
2022-11-27T01:46:57.297Z,22.70
2022-11-27T01:49:31.587Z,29.20
2022-11-27T01:52:51.084Z,18.80
2022-11-27T01:55:34.723Z,18.93
2022-11-27T01:58:21.790Z,21.30
2022-11-27T02:00:48.955Z,28.97
2022-11-27T02:03:28.270Z,19.67
2022-11-27T02:06:05.159Z,17.77
2022-11-27T02:09:05.224Z,18.87
2022-11-27T02:12:05.443Z,21.43
2022-11-27T02:15:20.508Z,21.23
2022-11-27T02:19:08.957Z,32.80
2022-11-27T02:21:56.896Z,28.10
2022-11-27T02:24:54.538Z,21.70
2022-11-27T02:28:19.195Z,23.93
2022-11-27T02:31:20.541Z,24.33
2022-11-27T02:36:58.459Z,19.37
2022-11-27T02:39:50.756Z,20.40
2022-11-27T02:42:22.945Z,22.17
2022-11-27T02:45:28.212Z,20.50
2022-11-27T02:48:01.877Z,19.40
2022-11-27T02:50:40.329Z,20.90
2022-11-27T02:53:31.551Z,19.47
2022-11-27T02:56:14.640Z,21.03
2022-11-27T02:58:49.457Z,22.57
2022-11-27T03:01:52.078Z,24.33
2022-11-27T03:04:33.906Z,20.77
2022-11-27T03:07:16.376Z,26.47
2022-11-27T03:09:58.291Z,16.47
2022-11-27T03:15:26.344Z,19.20
2022-11-27T03:18:10.104Z,18.30
2022-11-27T03:20:47.663Z,18.90
2022-11-27T03:23:19.545Z,19.60
2022-11-27T03:26:42.379Z,19.67
2022-11-27T03:29:32.938Z,14.20
2022-11-27T03:32:20.010Z,22.93
2022-11-27T03:34:51.404Z,24.87
2022-11-27T03:37:25.958Z,22.60
2022-11-27T03:40:00.196Z,24.90
2022-11-27T03:43:11.236Z,21.30
2022-11-27T03:46:13.089Z,19.90
2022-11-27T03:49:10.896Z,18.17
2022-11-27T03:52:07.351Z,18.83
2022-11-27T03:54:53.576Z,17.10
2022-11-27T03:57:29.837Z,21.63
2022-11-27T04:00:08.486Z,22.83
2022-11-27T04:02:57.984Z,23.60
2022-11-27T04:05:39.710Z,31.43
2022-11-27T04:08:15.226Z,18.00
2022-11-27T04:10:45.961Z,18.17
2022-11-27T04:13:21.374Z,21.87
2022-11-27T04:15:52.328Z,23.20
2022-11-27T04:18:42.309Z,20.67
2022-11-27T04:21:27.908Z,24.30
2022-11-27T04:23:56.367Z,22.83
2022-11-27T04:26:27.899Z,26.23
2022-11-27T04:29:02.439Z,20.07
2022-11-27T04:31:34.068Z,21.13
2022-11-27T04:34:08.150Z,17.43
2022-11-27T04:36:43.452Z,27.80
2022-11-27T04:42:20.722Z,26.87
2022-11-27T04:44:54.230Z,17.83
2022-11-27T04:47:49.673Z,22.10
2022-11-27T04:50:29.052Z,21.43
2022-11-27T04:53:00.422Z,26.23
2022-11-27T04:55:32.148Z,22.90
2022-11-27T04:58:14.343Z,15.23
2022-11-27T05:00:56.368Z,28.97
2022-11-27T05:03:42.889Z,18.33
2022-11-27T05:06:33.647Z,21.33
2022-11-27T05:09:05.509Z,27.37
2022-11-27T05:11:42.663Z,27.17
2022-11-27T05:14:29.417Z,23.63
2022-11-27T05:17:08.819Z,27.47
2022-11-27T05:19:57.451Z,19.90
2022-11-27T05:22:34.648Z,18.70
2022-11-27T05:25:04.487Z,19.10
2022-11-27T05:27:35.410Z,21.63
2022-11-27T05:30:06.382Z,21.90
2022-11-27T05:32:52.368Z,18.73
2022-11-27T05:35:28.300Z,19.77
2022-11-27T05:38:05.704Z,23.30
2022-11-27T05:41:55.584Z,21.90
2022-11-27T05:43:58.053Z,21.83
2022-11-27T05:46:28.790Z,22.57
2022-11-27T05:49:03.762Z,33.27
2022-11-27T05:51:43.273Z,26.23
2022-11-27T05:54:17.247Z,29.43
2022-11-27T05:56:50.581Z,25.53
2022-11-27T05:59:20.776Z,28.93
2022-11-27T06:01:51.469Z,29.17
2022-11-27T06:04:31.997Z,17.50
2022-11-27T06:07:11.568Z,31.97
2022-11-27T06:09:40.093Z,22.13
2022-11-27T06:12:14.522Z,20.93
2022-11-27T06:14:51.544Z,25.43
2022-11-27T06:17:28.678Z,24.57
2022-11-27T06:19:56.880Z,22.27
2022-11-27T06:22:42.661Z,23.83
2022-11-27T06:25:21.616Z,22.47
2022-11-27T06:27:52.475Z,25.90
2022-11-27T06:30:23.393Z,27.97
2022-11-27T06:32:57.080Z,26.80
2022-11-27T06:35:24.651Z,28.70
2022-11-27T06:37:55.477Z,23.23
2022-11-27T06:40:31.551Z,28.13
2022-11-27T06:43:13.184Z,30.67
2022-11-27T06:46:09.636Z,32.73
2022-11-27T06:48:56.716Z,53.73
2022-11-27T06:51:34.385Z,20.17
2022-11-27T06:54:09.302Z,24.60
2022-11-27T06:56:43.617Z,28.87
2022-11-27T06:59:19.798Z,29.97
2022-11-27T07:01:51.496Z,26.43
2022-11-27T07:04:32.616Z,28.20
2022-11-27T07:07:00.795Z,26.93
2022-11-27T07:09:28.078Z,21.60
2022-11-27T07:12:39.244Z,25.30
2022-11-27T07:15:13.341Z,24.80
2022-11-27T07:17:52.062Z,19.63
2022-11-27T07:20:27.703Z,19.50
2022-11-27T07:23:00.799Z,25.33
2022-11-27T07:26:07.148Z,23.43
2022-11-27T07:28:33.955Z,21.33
2022-11-27T07:31:01.948Z,22.70
2022-11-27T07:33:33.383Z,28.50
2022-11-27T07:36:27.084Z,34.30
2022-11-27T07:39:06.193Z,13.20
2022-11-27T07:41:49.168Z,23.93
2022-11-27T07:44:26.337Z,13.87
2022-11-27T07:47:06.886Z,18.67
2022-11-27T07:49:51.093Z,13.97
2022-11-27T07:52:22.485Z,18.03
2022-11-27T07:54:58.673Z,18.73
2022-11-27T07:57:29.793Z,14.97
2022-11-27T08:00:11.032Z,14.77
2022-11-27T08:03:28.035Z,17.90
2022-11-27T08:06:19.790Z,17.17
2022-11-27T08:09:18.755Z,21.10
2022-11-27T08:14:51.090Z,14.97
2022-11-27T08:17:28.202Z,18.30
2022-11-27T08:19:56.042Z,14.00
2022-11-27T08:22:35.505Z,17.60
2022-11-27T08:25:22.640Z,13.50
2022-11-27T08:28:15.450Z,14.17
2022-11-27T08:30:55.849Z,11.67
2022-11-27T08:37:15.806Z,9.83
2022-11-27T08:40:21.141Z,15.93
2022-11-27T08:42:58.676Z,11.37
2022-11-27T08:45:39.995Z,10.00
2022-11-27T08:48:10.828Z,15.57
2022-11-27T08:50:49.928Z,12.53
2022-11-27T08:53:21.509Z,12.70
2022-11-27T08:55:52.710Z,11.57
2022-11-27T08:58:28.882Z,14.20
2022-11-27T09:01:00.294Z,17.13
2022-11-27T09:03:36.350Z,14.10
2022-11-27T09:06:11.621Z,13.23
2022-11-27T09:08:59.696Z,11.77
2022-11-27T09:11:32.464Z,10.43
2022-11-27T09:15:02.643Z,12.70
2022-11-27T09:17:49.206Z,11.03
2022-11-27T09:21:13.834Z,10.07
2022-11-27T09:23:47.831Z,10.90
2022-11-27T09:26:32.572Z,13.60
2022-11-27T09:29:09.985Z,8.47
2022-11-27T09:31:55.202Z,10.20
2022-11-27T09:34:37.920Z,9.17
2022-11-27T09:37:22.608Z,8.20
2022-11-27T09:40:02.496Z,11.70
2022-11-27T09:42:59.980Z,17.77
2022-11-27T09:45:34.724Z,12.60
2022-11-27T09:48:29.488Z,8.43
2022-11-27T09:51:07.862Z,11.43
2022-11-27T09:57:14.844Z,11.13
2022-11-27T09:59:51.092Z,12.80
2022-11-27T10:03:25.639Z,13.43
2022-11-27T10:06:27.204Z,13.23
2022-11-27T10:09:34.526Z,14.20
2022-11-27T10:17:27.454Z,15.90
2022-11-27T10:21:19.182Z,19.60
2022-11-27T10:32:46.812Z,16.23
2022-11-27T10:36:09.014Z,10.23
2022-11-27T10:38:46.988Z,14.20
2022-11-27T10:41:55.126Z,16.13
2022-11-27T10:45:02.494Z,20.37
2022-11-27T10:51:10.916Z,12.90
2022-11-27T10:58:27.563Z,11.80
2022-11-27T11:01:19.455Z,16.20
2022-11-27T11:04:36.215Z,15.13
2022-11-27T11:11:11.482Z,11.27
2022-11-27T11:14:02.430Z,13.37
2022-11-27T11:16:35.801Z,10.77
2022-11-27T11:19:34.833Z,11.63
2022-11-27T11:22:32.708Z,13.20
2022-11-27T11:25:04.229Z,13.67
2022-11-27T11:27:37.900Z,20.10
2022-11-27T11:30:26.559Z,14.13
2022-11-27T11:33:12.988Z,16.33
2022-11-27T11:36:24.540Z,11.30
2022-11-27T11:39:03.016Z,11.97
2022-11-27T11:41:59.097Z,13.87
2022-11-27T11:45:07.769Z,10.40
2022-11-27T11:51:29.833Z,21.60
2022-11-27T11:54:59.293Z,8.97
2022-11-27T11:58:56.756Z,11.20
2022-11-27T12:01:56.832Z,11.27
2022-11-27T12:08:42.571Z,15.97
2022-11-27T12:20:11.023Z,16.73
2022-11-27T12:23:16.171Z,9.93
2022-11-27T12:26:20.501Z,15.17
2022-11-27T12:29:56.691Z,25.20
2022-11-27T12:41:07.619Z,13.03
2022-11-27T12:45:00.805Z,12.53
2022-11-27T12:48:49.289Z,19.73
2022-11-27T12:51:55.289Z,14.43
2022-11-27T12:54:57.418Z,16.33
2022-11-27T13:01:52.757Z,16.40
2022-11-27T13:04:43.749Z,11.33
2022-11-27T13:08:02.051Z,16.63
2022-11-27T13:10:54.156Z,14.23
2022-11-27T13:13:40.689Z,9.87
2022-11-27T13:17:03.732Z,18.23
2022-11-27T13:32:21.243Z,14.07
2022-11-27T13:35:32.824Z,14.20
2022-11-27T13:38:36.112Z,10.53
2022-11-27T13:41:46.286Z,12.90
2022-11-27T13:46:22.823Z,14.10
2022-11-27T13:49:49.808Z,11.83
2022-11-27T13:55:51.735Z,12.63
2022-11-27T13:59:15.883Z,10.17
2022-11-27T14:24:15.278Z,15.83
2022-11-27T14:30:48.447Z,7.60
2022-11-27T14:34:19.636Z,10.70
2022-11-27T14:37:30.780Z,12.63
2022-11-27T14:40:08.822Z,8.27
2022-11-27T14:42:50.234Z,9.83
2022-11-27T14:45:26.293Z,11.30
2022-11-27T14:48:03.172Z,10.53
2022-11-27T14:50:39.278Z,8.93
2022-11-27T14:53:13.037Z,10.00
2022-11-27T14:55:52.525Z,16.73
2022-11-27T14:58:42.152Z,14.10
2022-11-27T15:01:59.655Z,8.73
2022-11-27T15:05:10.897Z,9.23
2022-11-27T15:07:55.943Z,6.10
2022-11-27T15:11:54.089Z,13.13
2022-11-27T15:14:34.268Z,7.03
2022-11-27T15:17:24.265Z,9.33
2022-11-27T15:19:58.991Z,6.50
2022-11-27T15:22:45.140Z,12.37
2022-11-27T15:25:47.117Z,11.00
2022-11-27T15:29:00.760Z,8.63
2022-11-27T15:32:02.402Z,15.57
2022-11-27T15:34:48.303Z,13.50
2022-11-27T15:37:48.762Z,8.87
2022-11-27T15:40:44.837Z,9.00
2022-11-27T15:43:29.158Z,11.17
2022-11-27T15:46:31.631Z,13.10
2022-11-27T15:49:08.403Z,11.77
2022-11-27T15:54:51.964Z,14.20
2022-11-27T15:57:32.939Z,18.70
2022-11-27T16:00:11.683Z,18.07
2022-11-27T16:02:57.853Z,17.60
2022-11-27T16:05:39.654Z,14.33
2022-11-27T16:08:16.312Z,9.80
2022-11-27T16:11:06.099Z,16.70
2022-11-27T16:13:45.858Z,17.93
2022-11-27T16:20:30.606Z,20.03
2022-11-27T16:23:12.194Z,27.20
2022-11-27T16:25:54.017Z,27.90
2022-11-27T16:28:31.678Z,17.57
2022-11-27T16:31:08.197Z,22.40
2022-11-27T16:33:48.878Z,26.47
2022-11-27T16:36:24.273Z,20.43
2022-11-27T16:39:13.114Z,22.43
2022-11-27T16:42:35.110Z,19.70
2022-11-27T16:45:17.804Z,13.23
2022-11-27T16:48:03.685Z,15.47
2022-11-27T16:51:26.057Z,12.50
2022-11-27T16:54:23.569Z,14.03
2022-11-27T16:57:12.253Z,18.23
2022-11-27T16:59:45.858Z,18.90
2022-11-27T17:02:21.704Z,16.50
2022-11-27T17:05:07.214Z,25.50
2022-11-27T17:07:45.909Z,27.90
2022-11-27T17:10:16.956Z,13.67
2022-11-27T17:12:44.924Z,18.13
2022-11-27T17:15:51.814Z,12.93
2022-11-27T17:18:29.469Z,17.40
2022-11-27T17:21:22.034Z,20.97
2022-11-27T17:23:58.452Z,16.30
2022-11-27T17:26:37.237Z,28.97
2022-11-27T17:29:43.919Z,13.67
2022-11-27T17:36:05.572Z,18.20
2022-11-27T17:38:59.923Z,19.50
2022-11-27T17:41:31.180Z,25.83
2022-11-27T17:44:36.080Z,16.17
2022-11-27T17:47:15.869Z,21.00
2022-11-27T17:49:46.506Z,18.93
2022-11-27T17:52:21.424Z,17.90
2022-11-27T17:54:59.140Z,19.60
2022-11-27T17:57:33.747Z,21.17
2022-11-27T18:00:05.747Z,11.80
2022-11-27T18:02:40.265Z,11.43
2022-11-27T18:05:11.685Z,18.40
2022-11-27T18:07:48.120Z,22.37
2022-11-27T18:10:32.607Z,17.63
2022-11-27T18:13:04.668Z,15.63
2022-11-27T18:15:43.400Z,20.70
2022-11-27T18:18:14.125Z,17.73
2022-11-27T18:24:21.441Z,15.30
2022-11-27T18:27:06.693Z,19.23
2022-11-27T18:32:21.112Z,16.60
2022-11-27T18:34:55.008Z,14.03
2022-11-27T18:37:28.441Z,11.17
2022-11-27T18:40:12.965Z,19.37
2022-11-27T18:42:49.843Z,14.47
2022-11-27T18:45:33.354Z,14.37
2022-11-27T18:48:01.424Z,24.07
2022-11-27T18:50:29.846Z,9.00
2022-11-27T18:52:57.090Z,11.63
2022-11-27T18:55:23.963Z,11.80
2022-11-27T18:57:50.887Z,15.50
2022-11-27T19:00:18.431Z,13.07
2022-11-27T19:02:45.317Z,12.37
2022-11-27T19:05:12.293Z,12.23
2022-11-27T19:07:39.239Z,11.53
2022-11-27T19:10:07.238Z,14.77
2022-11-27T19:12:34.083Z,14.27
2022-11-27T19:15:00.926Z,8.43
2022-11-27T19:17:32.129Z,16.87
2022-11-27T19:19:59.725Z,8.93
2022-11-27T19:22:26.585Z,13.90
2022-11-27T19:24:53.500Z,15.07
2022-11-27T19:27:20.459Z,8.43
2022-11-27T19:29:47.408Z,19.13
2022-11-27T19:32:14.242Z,11.40
2022-11-27T19:34:41.362Z,9.00
2022-11-27T19:37:08.612Z,14.03
2022-11-27T19:39:35.494Z,10.87
2022-11-27T19:42:02.357Z,9.20
2022-11-27T19:44:29.282Z,12.20
2022-11-27T19:46:56.122Z,11.50
2022-11-27T19:49:23.057Z,13.40
2022-11-27T19:51:49.987Z,11.47
2022-11-27T19:54:19.147Z,23.10
2022-11-27T19:56:46.089Z,11.83
2022-11-27T19:59:13.386Z,17.13
2022-11-27T20:01:40.876Z,16.40
2022-11-27T20:04:11.286Z,17.80
2022-11-27T20:06:38.850Z,10.43
2022-11-27T20:09:07.173Z,13.03
2022-11-27T20:11:37.775Z,16.23
2022-11-27T20:14:06.470Z,11.90
2022-11-27T20:16:34.693Z,10.73
2022-11-27T20:19:05.256Z,14.33
2022-11-27T20:21:32.397Z,9.30
2022-11-27T20:23:59.388Z,9.80
2022-11-27T20:26:29.008Z,16.23
2022-11-27T20:28:55.924Z,13.70
2022-11-27T20:31:32.843Z,13.63
2022-11-27T20:34:03.047Z,18.83
2022-11-27T20:36:33.531Z,14.77
2022-11-27T20:39:01.296Z,9.10
2022-11-27T20:41:28.397Z,12.20
2022-11-27T20:43:58.666Z,15.00
2022-11-27T20:46:26.775Z,15.20
2022-11-27T20:48:55.282Z,18.60
2022-11-27T20:51:28.496Z,14.27
2022-11-27T20:53:58.339Z,19.10
2022-11-27T20:56:26.277Z,16.57
2022-11-27T20:58:53.273Z,14.50
2022-11-27T21:01:24.644Z,16.90
2022-11-27T21:03:53.688Z,18.03
2022-11-27T21:06:24.321Z,11.50
2022-11-27T21:08:51.382Z,13.27
2022-11-27T21:11:25.221Z,15.23
2022-11-27T21:14:02.132Z,14.70
2022-11-27T21:16:34.041Z,11.83
2022-11-27T21:19:24.378Z,13.80
2022-11-27T21:21:52.800Z,19.13
2022-11-27T21:24:22.110Z,14.33
2022-11-27T21:26:49.390Z,14.50
2022-11-27T21:29:16.595Z,13.60
2022-11-27T21:31:47.217Z,17.40
2022-11-27T21:34:14.756Z,16.77
2022-11-27T21:36:41.694Z,17.50
2022-11-27T21:39:12.649Z,18.80
2022-11-27T21:41:39.599Z,18.40
2022-11-27T21:44:06.591Z,14.40
2022-11-27T21:46:33.960Z,35.10
2022-11-27T21:49:02.186Z,20.77
2022-11-27T21:51:30.122Z,14.20
2022-11-27T21:53:58.639Z,24.13
2022-11-27T21:56:28.797Z,15.57
2022-11-27T21:58:56.223Z,11.83
2022-11-27T22:01:25.231Z,13.90
2022-11-27T22:03:56.555Z,15.07
2022-11-27T22:06:28.078Z,18.23
2022-11-27T22:08:58.153Z,14.30
2022-11-27T22:11:30.233Z,16.23
2022-11-27T22:14:03.136Z,11.87
2022-11-27T22:16:34.019Z,12.20
2022-11-27T22:19:02.197Z,17.37
2022-11-27T22:21:31.438Z,15.80
2022-11-27T22:24:01.027Z,16.20
2022-11-27T22:26:28.941Z,15.67
2022-11-27T22:28:58.494Z,21.93
2022-11-27T22:31:29.860Z,19.57
2022-11-27T22:33:57.925Z,13.37
2022-11-27T22:36:33.320Z,19.87
2022-11-27T22:39:04.277Z,21.77
2022-11-27T22:41:36.347Z,21.83
2022-11-27T22:44:18.538Z,20.20
2022-11-27T22:46:45.805Z,15.40
2022-11-27T22:49:15.508Z,16.63
2022-11-27T22:51:42.576Z,17.60
2022-11-27T22:54:13.086Z,19.27
2022-11-27T22:56:40.263Z,17.13
2022-11-27T23:01:55.038Z,21.00
2022-11-27T23:04:21.938Z,17.57
2022-11-27T23:06:48.989Z,17.80
2022-11-27T23:09:18.208Z,18.97
2022-11-27T23:11:45.572Z,14.30
2022-11-27T23:14:12.646Z,25.90
2022-11-27T23:16:39.659Z,16.93
2022-11-27T23:19:06.960Z,19.47
2022-11-27T23:21:37.320Z,18.53
2022-11-27T23:24:06.672Z,21.70
2022-11-27T23:26:33.819Z,24.53
2022-11-27T23:29:01.005Z,21.27
2022-11-27T23:31:35.643Z,15.50
2022-11-27T23:34:07.552Z,14.87
2022-11-27T23:36:35.685Z,18.10
2022-11-27T23:39:06.607Z,30.90
2022-11-27T23:41:33.788Z,16.07
2022-11-27T23:44:01.945Z,19.77
2022-11-27T23:46:29.911Z,23.17
2022-11-27T23:48:59.715Z,13.27
2022-11-27T23:51:31.681Z,21.77
2022-11-27T23:53:59.625Z,16.37
2022-11-27T23:56:32.364Z,16.93
2022-11-27T23:59:00.694Z,18.73
